sensor_id;sensor_type;location;lat;lon;timestamp;P1;durP1;ratioP1;P2;durP2;ratioP2
21593;SDS011;10959;51.328;7.322;2022-12-07T00:01:28;57.10;;;40.63;;
21593;SDS011;10959;51.328;7.322;2022-12-07T00:03:57;52.10;;;37.70;;
21593;SDS011;10959;51.328;7.322;2022-12-07T00:06:29;59.43;;;41.47;;
21593;SDS011;10959;51.328;7.322;2022-12-07T00:08:57;52.20;;;39.73;;
21593;SDS011;10959;51.328;7.322;2022-12-07T00:11:24;53.83;;;38.83;;
21593;SDS011;10959;51.328;7.322;2022-12-07T00:13:52;59.70;;;40.93;;
21593;SDS011;10959;51.328;7.322;2022-12-07T00:16:20;67.77;;;43.40;;
21593;SDS011;10959;51.328;7.322;2022-12-07T00:18:47;51.30;;;38.33;;
21593;SDS011;10959;51.328;7.322;2022-12-07T00:21:14;61.50;;;40.57;;
21593;SDS011;10959;51.328;7.322;2022-12-07T00:23:42;54.60;;;37.97;;
21593;SDS011;10959;51.328;7.322;2022-12-07T00:26:13;62.50;;;39.50;;
21593;SDS011;10959;51.328;7.322;2022-12-07T00:28:41;50.90;;;38.67;;
21593;SDS011;10959;51.328;7.322;2022-12-07T00:31:10;51.43;;;36.10;;
21593;SDS011;10959;51.328;7.322;2022-12-07T00:33:38;57.37;;;38.13;;
21593;SDS011;10959;51.328;7.322;2022-12-07T00:36:06;42.90;;;32.57;;
21593;SDS011;10959;51.328;7.322;2022-12-07T00:38:35;47.03;;;34.77;;
21593;SDS011;10959;51.328;7.322;2022-12-07T00:41:04;45.53;;;34.47;;
21593;SDS011;10959;51.328;7.322;2022-12-07T00:43:34;53.67;;;36.90;;
21593;SDS011;10959;51.328;7.322;2022-12-07T00:46:00;56.90;;;37.97;;
21593;SDS011;10959;51.328;7.322;2022-12-07T00:48:27;43.60;;;32.10;;
21593;SDS011;10959;51.328;7.322;2022-12-07T00:50:53;50.47;;;35.83;;
21593;SDS011;10959;51.328;7.322;2022-12-07T00:53:20;44.43;;;33.00;;
21593;SDS011;10959;51.328;7.322;2022-12-07T00:55:46;40.00;;;31.80;;
21593;SDS011;10959;51.328;7.322;2022-12-07T00:58:13;37.80;;;30.43;;
21593;SDS011;10959;51.328;7.322;2022-12-07T01:00:41;53.40;;;38.17;;
21593;SDS011;10959;51.328;7.322;2022-12-07T01:03:09;42.77;;;32.77;;
21593;SDS011;10959;51.328;7.322;2022-12-07T01:05:37;44.50;;;32.00;;
21593;SDS011;10959;51.328;7.322;2022-12-07T01:08:04;47.10;;;34.00;;
21593;SDS011;10959;51.328;7.322;2022-12-07T01:10:32;49.67;;;34.00;;
21593;SDS011;10959;51.328;7.322;2022-12-07T01:12:59;40.93;;;29.70;;
21593;SDS011;10959;51.328;7.322;2022-12-07T01:15:25;39.87;;;31.47;;
21593;SDS011;10959;51.328;7.322;2022-12-07T01:17:53;49.07;;;33.00;;
21593;SDS011;10959;51.328;7.322;2022-12-07T01:20:20;40.70;;;30.60;;
21593;SDS011;10959;51.328;7.322;2022-12-07T01:22:48;46.43;;;32.13;;
21593;SDS011;10959;51.328;7.322;2022-12-07T01:25:14;44.27;;;32.33;;
21593;SDS011;10959;51.328;7.322;2022-12-07T01:27:41;49.10;;;34.37;;
21593;SDS011;10959;51.328;7.322;2022-12-07T01:30:09;47.90;;;34.07;;
21593;SDS011;10959;51.328;7.322;2022-12-07T01:32:37;46.27;;;33.70;;
21593;SDS011;10959;51.328;7.322;2022-12-07T01:35:05;49.77;;;36.03;;
21593;SDS011;10959;51.328;7.322;2022-12-07T01:37:33;51.00;;;33.67;;
21593;SDS011;10959;51.328;7.322;2022-12-07T01:40:01;57.30;;;38.60;;
21593;SDS011;10959;51.328;7.322;2022-12-07T01:42:28;47.27;;;34.50;;
21593;SDS011;10959;51.328;7.322;2022-12-07T01:48:03;46.30;;;32.80;;
21593;SDS011;10959;51.328;7.322;2022-12-07T01:50:33;57.60;;;38.90;;
21593;SDS011;10959;51.328;7.322;2022-12-07T01:53:01;47.67;;;35.00;;
21593;SDS011;10959;51.328;7.322;2022-12-07T01:55:31;58.63;;;38.10;;
21593;SDS011;10959;51.328;7.322;2022-12-07T01:57:58;48.57;;;35.40;;
21593;SDS011;10959;51.328;7.322;2022-12-07T02:00:25;41.43;;;32.20;;
21593;SDS011;10959;51.328;7.322;2022-12-07T02:02:53;40.83;;;31.27;;
21593;SDS011;10959;51.328;7.322;2022-12-07T02:05:22;49.03;;;34.93;;
21593;SDS011;10959;51.328;7.322;2022-12-07T02:07:52;47.37;;;32.70;;
21593;SDS011;10959;51.328;7.322;2022-12-07T02:10:21;49.80;;;35.83;;
21593;SDS011;10959;51.328;7.322;2022-12-07T02:12:50;61.23;;;39.27;;
21593;SDS011;10959;51.328;7.322;2022-12-07T02:15:20;49.63;;;35.00;;
21593;SDS011;10959;51.328;7.322;2022-12-07T02:17:51;56.37;;;37.87;;
21593;SDS011;10959;51.328;7.322;2022-12-07T02:20:27;49.83;;;36.93;;
21593;SDS011;10959;51.328;7.322;2022-12-07T02:29:18;57.70;;;36.83;;
21593;SDS011;10959;51.328;7.322;2022-12-07T02:31:51;51.03;;;35.87;;
21593;SDS011;10959;51.328;7.322;2022-12-07T02:34:26;50.77;;;35.93;;
21593;SDS011;10959;51.328;7.322;2022-12-07T02:37:00;57.70;;;37.97;;
21593;SDS011;10959;51.328;7.322;2022-12-07T02:39:33;51.70;;;35.73;;
21593;SDS011;10959;51.328;7.322;2022-12-07T02:42:06;55.90;;;37.17;;
21593;SDS011;10959;51.328;7.322;2022-12-07T02:44:39;50.87;;;35.23;;
21593;SDS011;10959;51.328;7.322;2022-12-07T02:47:08;58.83;;;39.20;;
21593;SDS011;10959;51.328;7.322;2022-12-07T02:49:38;44.37;;;31.60;;
21593;SDS011;10959;51.328;7.322;2022-12-07T02:52:06;45.83;;;33.00;;
21593;SDS011;10959;51.328;7.322;2022-12-07T02:54:32;47.07;;;33.37;;
21593;SDS011;10959;51.328;7.322;2022-12-07T02:57:00;54.67;;;36.20;;
21593;SDS011;10959;51.328;7.322;2022-12-07T02:59:33;44.20;;;30.70;;
21593;SDS011;10959;51.328;7.322;2022-12-07T03:02:14;45.57;;;32.37;;
21593;SDS011;10959;51.328;7.322;2022-12-07T03:04:48;47.37;;;32.27;;
21593;SDS011;10959;51.328;7.322;2022-12-07T03:07:27;46.37;;;32.80;;
21593;SDS011;10959;51.328;7.322;2022-12-07T03:10:01;48.27;;;31.37;;
21593;SDS011;10959;51.328;7.322;2022-12-07T03:12:37;39.90;;;28.90;;
21593;SDS011;10959;51.328;7.322;2022-12-07T03:15:12;43.03;;;31.97;;
21593;SDS011;10959;51.328;7.322;2022-12-07T03:17:44;42.00;;;30.73;;
21593;SDS011;10959;51.328;7.322;2022-12-07T03:20:14;40.80;;;28.30;;
21593;SDS011;10959;51.328;7.322;2022-12-07T03:22:45;39.37;;;29.77;;
21593;SDS011;10959;51.328;7.322;2022-12-07T03:25:13;46.60;;;30.40;;
21593;SDS011;10959;51.328;7.322;2022-12-07T03:27:43;38.37;;;27.90;;
21593;SDS011;10959;51.328;7.322;2022-12-07T03:30:14;40.17;;;27.37;;
21593;SDS011;10959;51.328;7.322;2022-12-07T03:32:45;44.80;;;31.27;;
21593;SDS011;10959;51.328;7.322;2022-12-07T03:35:17;47.63;;;31.50;;
21593;SDS011;10959;51.328;7.322;2022-12-07T03:37:48;44.20;;;31.33;;
21593;SDS011;10959;51.328;7.322;2022-12-07T03:40:19;39.80;;;28.10;;
21593;SDS011;10959;51.328;7.322;2022-12-07T03:42:52;38.77;;;29.53;;
21593;SDS011;10959;51.328;7.322;2022-12-07T03:45:20;39.13;;;27.87;;
21593;SDS011;10959;51.328;7.322;2022-12-07T03:47:54;37.23;;;26.70;;
21593;SDS011;10959;51.328;7.322;2022-12-07T03:50:29;38.73;;;28.67;;
21593;SDS011;10959;51.328;7.322;2022-12-07T03:52:59;37.77;;;29.57;;
21593;SDS011;10959;51.328;7.322;2022-12-07T03:55:31;35.00;;;25.83;;
21593;SDS011;10959;51.328;7.322;2022-12-07T03:57:59;36.73;;;27.37;;
21593;SDS011;10959;51.328;7.322;2022-12-07T04:00:30;36.10;;;27.37;;
21593;SDS011;10959;51.328;7.322;2022-12-07T04:02:58;36.87;;;27.37;;
21593;SDS011;10959;51.328;7.322;2022-12-07T04:05:24;29.87;;;23.90;;
21593;SDS011;10959;51.328;7.322;2022-12-07T04:07:51;39.53;;;27.03;;
21593;SDS011;10959;51.328;7.322;2022-12-07T04:10:17;36.27;;;26.43;;
21593;SDS011;10959;51.328;7.322;2022-12-07T04:12:44;38.07;;;26.70;;
21593;SDS011;10959;51.328;7.322;2022-12-07T04:15:11;38.07;;;27.10;;
21593;SDS011;10959;51.328;7.322;2022-12-07T04:17:38;38.00;;;26.70;;
21593;SDS011;10959;51.328;7.322;2022-12-07T04:20:06;33.70;;;25.83;;
21593;SDS011;10959;51.328;7.322;2022-12-07T04:22:34;35.53;;;25.37;;
21593;SDS011;10959;51.328;7.322;2022-12-07T04:25:00;39.67;;;26.33;;
21593;SDS011;10959;51.328;7.322;2022-12-07T04:27:26;34.23;;;25.27;;
21593;SDS011;10959;51.328;7.322;2022-12-07T04:29:53;35.83;;;26.20;;
21593;SDS011;10959;51.328;7.322;2022-12-07T04:32:20;34.47;;;25.23;;
21593;SDS011;10959;51.328;7.322;2022-12-07T04:34:47;35.77;;;25.80;;
21593;SDS011;10959;51.328;7.322;2022-12-07T04:37:15;34.97;;;24.67;;
21593;SDS011;10959;51.328;7.322;2022-12-07T04:39:42;41.03;;;26.83;;
21593;SDS011;10959;51.328;7.322;2022-12-07T04:42:09;37.97;;;26.07;;
21593;SDS011;10959;51.328;7.322;2022-12-07T04:44:37;34.83;;;24.87;;
21593;SDS011;10959;51.328;7.322;2022-12-07T04:47:04;36.93;;;23.60;;
21593;SDS011;10959;51.328;7.322;2022-12-07T04:49:31;32.83;;;23.37;;
21593;SDS011;10959;51.328;7.322;2022-12-07T04:51:58;35.23;;;23.30;;
21593;SDS011;10959;51.328;7.322;2022-12-07T04:54:25;37.27;;;25.20;;
21593;SDS011;10959;51.328;7.322;2022-12-07T04:56:52;33.17;;;22.17;;
21593;SDS011;10959;51.328;7.322;2022-12-07T04:59:18;33.63;;;21.20;;
21593;SDS011;10959;51.328;7.322;2022-12-07T05:01:45;33.43;;;23.10;;
21593;SDS011;10959;51.328;7.322;2022-12-07T05:04:11;30.43;;;22.10;;
21593;SDS011;10959;51.328;7.322;2022-12-07T05:06:38;35.50;;;22.80;;
21593;SDS011;10959;51.328;7.322;2022-12-07T05:09:04;32.83;;;22.40;;
21593;SDS011;10959;51.328;7.322;2022-12-07T05:11:32;27.00;;;21.10;;
21593;SDS011;10959;51.328;7.322;2022-12-07T05:14:06;37.70;;;23.20;;
21593;SDS011;10959;51.328;7.322;2022-12-07T05:16:34;33.57;;;22.57;;
21593;SDS011;10959;51.328;7.322;2022-12-07T05:19:01;30.83;;;21.43;;
21593;SDS011;10959;51.328;7.322;2022-12-07T05:21:28;33.97;;;21.77;;
21593;SDS011;10959;51.328;7.322;2022-12-07T05:23:54;33.10;;;23.30;;
21593;SDS011;10959;51.328;7.322;2022-12-07T05:26:21;32.83;;;23.53;;
21593;SDS011;10959;51.328;7.322;2022-12-07T05:28:51;33.47;;;24.10;;
21593;SDS011;10959;51.328;7.322;2022-12-07T05:31:18;31.47;;;22.67;;
21593;SDS011;10959;51.328;7.322;2022-12-07T05:33:45;30.13;;;21.97;;
21593;SDS011;10959;51.328;7.322;2022-12-07T05:36:11;31.60;;;24.53;;
21593;SDS011;10959;51.328;7.322;2022-12-07T05:38:37;33.57;;;21.80;;
21593;SDS011;10959;51.328;7.322;2022-12-07T05:41:04;31.43;;;22.03;;
21593;SDS011;10959;51.328;7.322;2022-12-07T05:43:32;30.20;;;21.97;;
21593;SDS011;10959;51.328;7.322;2022-12-07T05:45:59;32.73;;;23.90;;
21593;SDS011;10959;51.328;7.322;2022-12-07T05:48:26;35.87;;;23.70;;
21593;SDS011;10959;51.328;7.322;2022-12-07T05:50:52;34.03;;;24.67;;
21593;SDS011;10959;51.328;7.322;2022-12-07T05:53:19;34.30;;;25.97;;
21593;SDS011;10959;51.328;7.322;2022-12-07T05:55:45;33.60;;;22.33;;
21593;SDS011;10959;51.328;7.322;2022-12-07T05:58:11;35.93;;;24.43;;
21593;SDS011;10959;51.328;7.322;2022-12-07T06:00:55;37.60;;;23.57;;
21593;SDS011;10959;51.328;7.322;2022-12-07T06:03:23;30.90;;;22.97;;
21593;SDS011;10959;51.328;7.322;2022-12-07T06:05:51;31.57;;;23.67;;
21593;SDS011;10959;51.328;7.322;2022-12-07T06:08:18;35.00;;;24.30;;
21593;SDS011;10959;51.328;7.322;2022-12-07T06:10:46;34.30;;;24.10;;
21593;SDS011;10959;51.328;7.322;2022-12-07T06:13:33;33.90;;;25.53;;
21593;SDS011;10959;51.328;7.322;2022-12-07T06:15:58;32.90;;;22.50;;
21593;SDS011;10959;51.328;7.322;2022-12-07T06:18:26;33.53;;;24.30;;
21593;SDS011;10959;51.328;7.322;2022-12-07T06:20:52;40.20;;;25.73;;
21593;SDS011;10959;51.328;7.322;2022-12-07T06:23:19;32.03;;;23.13;;
21593;SDS011;10959;51.328;7.322;2022-12-07T06:25:45;32.50;;;22.37;;
21593;SDS011;10959;51.328;7.322;2022-12-07T06:28:12;28.60;;;21.90;;
21593;SDS011;10959;51.328;7.322;2022-12-07T06:30:38;32.80;;;23.43;;
21593;SDS011;10959;51.328;7.322;2022-12-07T06:33:05;27.80;;;21.83;;
21593;SDS011;10959;51.328;7.322;2022-12-07T06:35:33;32.83;;;23.93;;
21593;SDS011;10959;51.328;7.322;2022-12-07T06:37:59;30.77;;;21.60;;
21593;SDS011;10959;51.328;7.322;2022-12-07T06:40:26;34.03;;;25.43;;
21593;SDS011;10959;51.328;7.322;2022-12-07T06:42:52;31.43;;;22.80;;
21593;SDS011;10959;51.328;7.322;2022-12-07T06:45:18;31.67;;;22.93;;
21593;SDS011;10959;51.328;7.322;2022-12-07T06:47:46;29.73;;;21.53;;
21593;SDS011;10959;51.328;7.322;2022-12-07T06:50:12;38.17;;;25.00;;
21593;SDS011;10959;51.328;7.322;2022-12-07T06:52:40;30.43;;;23.40;;
21593;SDS011;10959;51.328;7.322;2022-12-07T06:55:07;27.57;;;21.73;;
21593;SDS011;10959;51.328;7.322;2022-12-07T06:57:33;33.47;;;23.10;;
21593;SDS011;10959;51.328;7.322;2022-12-07T07:00:00;35.37;;;25.37;;
21593;SDS011;10959;51.328;7.322;2022-12-07T07:02:26;34.33;;;24.57;;
21593;SDS011;10959;51.328;7.322;2022-12-07T07:04:53;31.37;;;22.60;;
21593;SDS011;10959;51.328;7.322;2022-12-07T07:07:19;31.53;;;23.97;;
21593;SDS011;10959;51.328;7.322;2022-12-07T07:09:47;38.13;;;25.37;;
21593;SDS011;10959;51.328;7.322;2022-12-07T07:12:13;34.70;;;24.30;;
21593;SDS011;10959;51.328;7.322;2022-12-07T07:14:40;29.80;;;21.20;;
21593;SDS011;10959;51.328;7.322;2022-12-07T07:17:06;34.33;;;23.23;;
21593;SDS011;10959;51.328;7.322;2022-12-07T07:19:33;26.03;;;19.67;;
21593;SDS011;10959;51.328;7.322;2022-12-07T07:21:59;25.00;;;19.13;;
21593;SDS011;10959;51.328;7.322;2022-12-07T07:24:26;29.60;;;21.07;;
21593;SDS011;10959;51.328;7.322;2022-12-07T07:26:53;27.63;;;20.60;;
21593;SDS011;10959;51.328;7.322;2022-12-07T07:29:20;29.07;;;19.23;;
21593;SDS011;10959;51.328;7.322;2022-12-07T07:31:47;35.37;;;23.60;;
21593;SDS011;10959;51.328;7.322;2022-12-07T07:34:13;27.73;;;21.83;;
21593;SDS011;10959;51.328;7.322;2022-12-07T07:36:40;27.67;;;21.93;;
21593;SDS011;10959;51.328;7.322;2022-12-07T07:39:06;28.33;;;21.17;;
21593;SDS011;10959;51.328;7.322;2022-12-07T07:41:33;29.70;;;23.57;;
21593;SDS011;10959;51.328;7.322;2022-12-07T07:44:00;34.37;;;23.63;;
21593;SDS011;10959;51.328;7.322;2022-12-07T07:46:27;31.83;;;24.43;;
21593;SDS011;10959;51.328;7.322;2022-12-07T07:48:53;28.47;;;22.23;;
21593;SDS011;10959;51.328;7.322;2022-12-07T07:51:20;32.07;;;23.20;;
21593;SDS011;10959;51.328;7.322;2022-12-07T07:53:46;27.87;;;20.63;;
21593;SDS011;10959;51.328;7.322;2022-12-07T07:56:13;27.80;;;21.67;;
21593;SDS011;10959;51.328;7.322;2022-12-07T07:58:39;29.93;;;22.67;;
21593;SDS011;10959;51.328;7.322;2022-12-07T08:01:07;27.43;;;20.50;;
21593;SDS011;10959;51.328;7.322;2022-12-07T08:03:34;28.53;;;22.23;;
21593;SDS011;10959;51.328;7.322;2022-12-07T08:06:01;29.20;;;23.17;;
21593;SDS011;10959;51.328;7.322;2022-12-07T08:08:28;24.27;;;19.90;;
21593;SDS011;10959;51.328;7.322;2022-12-07T08:10:54;31.57;;;24.30;;
21593;SDS011;10959;51.328;7.322;2022-12-07T08:13:25;27.43;;;20.73;;
21593;SDS011;10959;51.328;7.322;2022-12-07T08:15:51;25.17;;;19.33;;
21593;SDS011;10959;51.328;7.322;2022-12-07T08:18:19;23.83;;;19.30;;
21593;SDS011;10959;51.328;7.322;2022-12-07T08:20:46;22.37;;;17.83;;
21593;SDS011;10959;51.328;7.322;2022-12-07T08:23:12;25.97;;;19.43;;
21593;SDS011;10959;51.328;7.322;2022-12-07T08:25:39;24.47;;;19.20;;
21593;SDS011;10959;51.328;7.322;2022-12-07T08:28:05;24.10;;;17.43;;
21593;SDS011;10959;51.328;7.322;2022-12-07T08:30:32;22.17;;;16.53;;
21593;SDS011;10959;51.328;7.322;2022-12-07T08:32:59;23.67;;;16.47;;
21593;SDS011;10959;51.328;7.322;2022-12-07T08:35:27;28.63;;;19.47;;
21593;SDS011;10959;51.328;7.322;2022-12-07T08:37:53;23.60;;;18.80;;
21593;SDS011;10959;51.328;7.322;2022-12-07T08:40:22;21.13;;;17.30;;
21593;SDS011;10959;51.328;7.322;2022-12-07T08:42:48;19.57;;;16.27;;
21593;SDS011;10959;51.328;7.322;2022-12-07T08:45:16;20.93;;;16.43;;
21593;SDS011;10959;51.328;7.322;2022-12-07T08:47:44;21.87;;;17.33;;
21593;SDS011;10959;51.328;7.322;2022-12-07T08:50:15;21.67;;;15.90;;
21593;SDS011;10959;51.328;7.322;2022-12-07T08:52:44;20.90;;;14.97;;
21593;SDS011;10959;51.328;7.322;2022-12-07T08:55:16;18.60;;;15.67;;
21593;SDS011;10959;51.328;7.322;2022-12-07T08:57:43;19.83;;;15.80;;
21593;SDS011;10959;51.328;7.322;2022-12-07T09:00:10;21.07;;;16.00;;
21593;SDS011;10959;51.328;7.322;2022-12-07T09:02:39;22.77;;;17.00;;
21593;SDS011;10959;51.328;7.322;2022-12-07T09:05:06;22.17;;;17.77;;
21593;SDS011;10959;51.328;7.322;2022-12-07T09:07:33;25.67;;;20.47;;
21593;SDS011;10959;51.328;7.322;2022-12-07T09:10:01;19.80;;;16.17;;
21593;SDS011;10959;51.328;7.322;2022-12-07T09:12:28;22.93;;;18.13;;
21593;SDS011;10959;51.328;7.322;2022-12-07T09:14:55;19.57;;;15.80;;
21593;SDS011;10959;51.328;7.322;2022-12-07T09:17:21;19.17;;;15.20;;
21593;SDS011;10959;51.328;7.322;2022-12-07T09:19:47;18.67;;;16.13;;
21593;SDS011;10959;51.328;7.322;2022-12-07T09:22:14;16.50;;;14.27;;
21593;SDS011;10959;51.328;7.322;2022-12-07T09:24:40;16.17;;;14.43;;
21593;SDS011;10959;51.328;7.322;2022-12-07T09:27:09;24.40;;;16.53;;
21593;SDS011;10959;51.328;7.322;2022-12-07T09:29:36;16.03;;;13.80;;
21593;SDS011;10959;51.328;7.322;2022-12-07T09:32:03;16.60;;;14.80;;
21593;SDS011;10959;51.328;7.322;2022-12-07T09:34:30;20.87;;;14.17;;
21593;SDS011;10959;51.328;7.322;2022-12-07T09:36:56;21.57;;;15.93;;
21593;SDS011;10959;51.328;7.322;2022-12-07T09:39:23;21.07;;;15.27;;
21593;SDS011;10959;51.328;7.322;2022-12-07T09:41:49;23.70;;;15.10;;
21593;SDS011;10959;51.328;7.322;2022-12-07T09:44:22;18.10;;;15.53;;
21593;SDS011;10959;51.328;7.322;2022-12-07T09:46:51;17.60;;;14.00;;
21593;SDS011;10959;51.328;7.322;2022-12-07T09:49:19;17.00;;;14.20;;
21593;SDS011;10959;51.328;7.322;2022-12-07T09:51:47;19.83;;;13.47;;
21593;SDS011;10959;51.328;7.322;2022-12-07T09:54:14;19.43;;;15.20;;
21593;SDS011;10959;51.328;7.322;2022-12-07T09:56:42;20.73;;;16.20;;
21593;SDS011;10959;51.328;7.322;2022-12-07T09:59:12;21.90;;;16.47;;
21593;SDS011;10959;51.328;7.322;2022-12-07T10:01:45;22.43;;;15.27;;
21593;SDS011;10959;51.328;7.322;2022-12-07T10:04:14;20.83;;;15.77;;
21593;SDS011;10959;51.328;7.322;2022-12-07T10:06:42;19.77;;;15.73;;
21593;SDS011;10959;51.328;7.322;2022-12-07T10:09:10;21.90;;;17.63;;
21593;SDS011;10959;51.328;7.322;2022-12-07T10:14:28;20.00;;;16.33;;
21593;SDS011;10959;51.328;7.322;2022-12-07T10:16:56;19.53;;;15.00;;
21593;SDS011;10959;51.328;7.322;2022-12-07T10:19:24;20.90;;;16.77;;
21593;SDS011;10959;51.328;7.322;2022-12-07T10:22:07;24.03;;;17.83;;
21593;SDS011;10959;51.328;7.322;2022-12-07T10:24:37;21.13;;;15.63;;
21593;SDS011;10959;51.328;7.322;2022-12-07T10:27:09;24.87;;;17.50;;
21593;SDS011;10959;51.328;7.322;2022-12-07T10:29:46;21.20;;;16.77;;
21593;SDS011;10959;51.328;7.322;2022-12-07T10:32:26;21.43;;;15.83;;
21593;SDS011;10959;51.328;7.322;2022-12-07T10:35:15;22.50;;;16.80;;
21593;SDS011;10959;51.328;7.322;2022-12-07T10:37:45;19.97;;;15.27;;
21593;SDS011;10959;51.328;7.322;2022-12-07T10:40:23;21.03;;;17.10;;
21593;SDS011;10959;51.328;7.322;2022-12-07T10:43:00;21.80;;;16.13;;
21593;SDS011;10959;51.328;7.322;2022-12-07T10:45:28;14.70;;;13.00;;
21593;SDS011;10959;51.328;7.322;2022-12-07T10:47:58;18.07;;;12.47;;
21593;SDS011;10959;51.328;7.322;2022-12-07T10:50:41;15.87;;;11.67;;
21593;SDS011;10959;51.328;7.322;2022-12-07T10:53:20;11.70;;;9.83;;
21593;SDS011;10959;51.328;7.322;2022-12-07T10:56:03;15.33;;;9.30;;
21593;SDS011;10959;51.328;7.322;2022-12-07T10:58:45;12.33;;;10.27;;
21593;SDS011;10959;51.328;7.322;2022-12-07T11:01:22;10.60;;;8.30;;
21593;SDS011;10959;51.328;7.322;2022-12-07T11:04:03;11.67;;;9.03;;
21593;SDS011;10959;51.328;7.322;2022-12-07T11:06:45;9.80;;;8.37;;
21593;SDS011;10959;51.328;7.322;2022-12-07T11:09:32;12.53;;;8.40;;
21593;SDS011;10959;51.328;7.322;2022-12-07T11:12:17;10.60;;;8.07;;
21593;SDS011;10959;51.328;7.322;2022-12-07T11:14:54;9.00;;;7.73;;
21593;SDS011;10959;51.328;7.322;2022-12-07T11:17:25;15.03;;;8.40;;
21593;SDS011;10959;51.328;7.322;2022-12-07T11:20:04;10.93;;;8.40;;
21593;SDS011;10959;51.328;7.322;2022-12-07T11:22:47;12.77;;;8.30;;
21593;SDS011;10959;51.328;7.322;2022-12-07T11:25:26;9.67;;;8.53;;
21593;SDS011;10959;51.328;7.322;2022-12-07T11:28:03;13.23;;;9.33;;
21593;SDS011;10959;51.328;7.322;2022-12-07T11:30:42;11.13;;;9.80;;
21593;SDS011;10959;51.328;7.322;2022-12-07T11:33:19;15.00;;;10.73;;
21593;SDS011;10959;51.328;7.322;2022-12-07T11:36:00;14.27;;;10.80;;
21593;SDS011;10959;51.328;7.322;2022-12-07T11:38:35;15.87;;;11.23;;
21593;SDS011;10959;51.328;7.322;2022-12-07T11:41:08;16.47;;;13.70;;
21593;SDS011;10959;51.328;7.322;2022-12-07T11:46:35;17.07;;;12.47;;
21593;SDS011;10959;51.328;7.322;2022-12-07T11:49:12;15.93;;;12.83;;
21593;SDS011;10959;51.328;7.322;2022-12-07T11:51:46;19.87;;;13.87;;
21593;SDS011;10959;51.328;7.322;2022-12-07T11:54:19;13.77;;;12.47;;
21593;SDS011;10959;51.328;7.322;2022-12-07T11:56:51;16.47;;;14.27;;
21593;SDS011;10959;51.328;7.322;2022-12-07T11:59:23;16.77;;;14.77;;
21593;SDS011;10959;51.328;7.322;2022-12-07T12:01:53;14.77;;;13.17;;
21593;SDS011;10959;51.328;7.322;2022-12-07T12:04:29;18.23;;;14.63;;
21593;SDS011;10959;51.328;7.322;2022-12-07T12:07:03;15.57;;;12.67;;
21593;SDS011;10959;51.328;7.322;2022-12-07T12:09:33;16.90;;;14.70;;
21593;SDS011;10959;51.328;7.322;2022-12-07T12:15:23;16.47;;;14.70;;
21593;SDS011;10959;51.328;7.322;2022-12-07T12:18:11;18.97;;;14.67;;
21593;SDS011;10959;51.328;7.322;2022-12-07T12:20:51;19.13;;;15.37;;
21593;SDS011;10959;51.328;7.322;2022-12-07T12:23:26;15.63;;;13.83;;
21593;SDS011;10959;51.328;7.322;2022-12-07T12:26:01;17.33;;;13.17;;
21593;SDS011;10959;51.328;7.322;2022-12-07T12:28:32;15.97;;;13.57;;
21593;SDS011;10959;51.328;7.322;2022-12-07T12:31:05;17.10;;;12.30;;
21593;SDS011;10959;51.328;7.322;2022-12-07T12:33:34;15.70;;;13.97;;
21593;SDS011;10959;51.328;7.322;2022-12-07T12:36:17;15.43;;;13.87;;
21593;SDS011;10959;51.328;7.322;2022-12-07T12:38:50;18.83;;;14.33;;
21593;SDS011;10959;51.328;7.322;2022-12-07T12:47:42;20.97;;;14.70;;
21593;SDS011;10959;51.328;7.322;2022-12-07T12:50:18;13.07;;;11.67;;
21593;SDS011;10959;51.328;7.322;2022-12-07T12:52:49;15.10;;;11.60;;
21593;SDS011;10959;51.328;7.322;2022-12-07T12:58:35;15.50;;;13.00;;
21593;SDS011;10959;51.328;7.322;2022-12-07T13:07:02;13.40;;;11.33;;
21593;SDS011;10959;51.328;7.322;2022-12-07T13:09:29;10.90;;;9.80;;
21593;SDS011;10959;51.328;7.322;2022-12-07T13:12:01;13.13;;;11.67;;
21593;SDS011;10959;51.328;7.322;2022-12-07T13:14:41;15.30;;;10.67;;
21593;SDS011;10959;51.328;7.322;2022-12-07T13:23:09;10.27;;;9.27;;
21593;SDS011;10959;51.328;7.322;2022-12-07T13:25:38;9.87;;;8.23;;
21593;SDS011;10959;51.328;7.322;2022-12-07T13:28:14;11.70;;;9.20;;
21593;SDS011;10959;51.328;7.322;2022-12-07T13:30:45;11.53;;;8.97;;
21593;SDS011;10959;51.328;7.322;2022-12-07T13:33:20;8.60;;;7.70;;
21593;SDS011;10959;51.328;7.322;2022-12-07T13:35:46;12.00;;;9.20;;
21593;SDS011;10959;51.328;7.322;2022-12-07T13:38:19;11.40;;;9.83;;
21593;SDS011;10959;51.328;7.322;2022-12-07T13:41:01;12.00;;;10.37;;
21593;SDS011;10959;51.328;7.322;2022-12-07T13:43:28;11.23;;;9.97;;
21593;SDS011;10959;51.328;7.322;2022-12-07T13:45:57;14.00;;;12.23;;
21593;SDS011;10959;51.328;7.322;2022-12-07T13:48:27;17.10;;;11.23;;
21593;SDS011;10959;51.328;7.322;2022-12-07T13:50:58;11.77;;;9.00;;
21593;SDS011;10959;51.328;7.322;2022-12-07T13:53:26;14.73;;;10.40;;
21593;SDS011;10959;51.328;7.322;2022-12-07T13:55:55;18.23;;;11.13;;
21593;SDS011;10959;51.328;7.322;2022-12-07T13:58:22;10.50;;;9.30;;
21593;SDS011;10959;51.328;7.322;2022-12-07T14:00:50;15.23;;;10.20;;
21593;SDS011;10959;51.328;7.322;2022-12-07T14:03:23;12.00;;;10.37;;
21593;SDS011;10959;51.328;7.322;2022-12-07T14:06:03;21.10;;;14.87;;
21593;SDS011;10959;51.328;7.322;2022-12-07T14:08:38;18.23;;;12.80;;
21593;SDS011;10959;51.328;7.322;2022-12-07T14:11:04;13.73;;;10.27;;
21593;SDS011;10959;51.328;7.322;2022-12-07T14:13:36;10.93;;;9.83;;
21593;SDS011;10959;51.328;7.322;2022-12-07T14:16:23;12.63;;;9.97;;
21593;SDS011;10959;51.328;7.322;2022-12-07T14:18:54;14.07;;;11.23;;
21593;SDS011;10959;51.328;7.322;2022-12-07T14:21:23;11.10;;;9.70;;
21593;SDS011;10959;51.328;7.322;2022-12-07T14:26:50;11.90;;;8.83;;
21593;SDS011;10959;51.328;7.322;2022-12-07T14:29:21;10.73;;;7.37;;
21593;SDS011;10959;51.328;7.322;2022-12-07T14:31:54;8.43;;;6.30;;
21593;SDS011;10959;51.328;7.322;2022-12-07T14:34:23;8.20;;;5.20;;
21593;SDS011;10959;51.328;7.322;2022-12-07T14:36:49;6.63;;;4.50;;
21593;SDS011;10959;51.328;7.322;2022-12-07T14:39:16;8.00;;;4.73;;
21593;SDS011;10959;51.328;7.322;2022-12-07T14:41:43;5.60;;;4.13;;
21593;SDS011;10959;51.328;7.322;2022-12-07T14:44:19;6.50;;;3.70;;
21593;SDS011;10959;51.328;7.322;2022-12-07T14:46:47;8.70;;;4.07;;
21593;SDS011;10959;51.328;7.322;2022-12-07T14:49:13;7.10;;;3.80;;
21593;SDS011;10959;51.328;7.322;2022-12-07T14:51:41;6.43;;;4.03;;
21593;SDS011;10959;51.328;7.322;2022-12-07T14:54:12;5.23;;;3.80;;
21593;SDS011;10959;51.328;7.322;2022-12-07T14:56:42;7.67;;;4.37;;
21593;SDS011;10959;51.328;7.322;2022-12-07T14:59:09;6.20;;;4.40;;
21593;SDS011;10959;51.328;7.322;2022-12-07T15:01:36;9.90;;;5.63;;
21593;SDS011;10959;51.328;7.322;2022-12-07T15:04:03;7.83;;;5.27;;
21593;SDS011;10959;51.328;7.322;2022-12-07T15:06:29;9.37;;;5.60;;
21593;SDS011;10959;51.328;7.322;2022-12-07T15:08:57;8.50;;;5.80;;
21593;SDS011;10959;51.328;7.322;2022-12-07T15:11:23;7.17;;;5.83;;
21593;SDS011;10959;51.328;7.322;2022-12-07T15:13:50;15.17;;;6.20;;
21593;SDS011;10959;51.328;7.322;2022-12-07T15:16:36;9.73;;;5.83;;
21593;SDS011;10959;51.328;7.322;2022-12-07T15:19:04;7.20;;;5.60;;
21593;SDS011;10959;51.328;7.322;2022-12-07T15:21:31;9.07;;;5.23;;